createdAt,value
2019-02-16T00:03:39.911Z,7.27
2019-02-16T00:06:10.320Z,7.97
2019-02-16T00:11:43.240Z,7.53
2019-02-16T00:14:13.632Z,9.93
2019-02-16T00:16:55.318Z,7.07
2019-02-16T00:22:30.576Z,8.77
2019-02-16T00:25:01.426Z,8.17
2019-02-16T00:27:31.894Z,7.83
2019-02-16T00:30:02.438Z,8.43
2019-02-16T00:32:32.938Z,7.20
2019-02-16T00:35:03.462Z,9.03
2019-02-16T00:37:34.112Z,9.77
2019-02-16T00:43:09.356Z,6.67
2019-02-16T00:45:58.774Z,10.03
2019-02-16T00:48:29.166Z,9.83
2019-02-16T00:50:59.553Z,8.80
2019-02-16T00:53:35.142Z,8.57
2019-02-16T00:56:05.658Z,8.07
2019-02-16T00:58:55.061Z,7.50
2019-02-16T01:04:27.863Z,7.10
2019-02-16T01:06:58.194Z,6.23
2019-02-16T01:12:30.749Z,9.33
2019-02-16T01:15:01.196Z,8.07
2019-02-16T01:17:31.573Z,11.43
2019-02-16T01:23:19.217Z,8.13
2019-02-16T01:25:49.710Z,11.43
2019-02-16T01:28:20.130Z,6.67
2019-02-16T01:30:50.753Z,9.17
2019-02-16T01:33:21.285Z,7.40
2019-02-16T01:35:51.954Z,8.43
2019-02-16T01:38:22.427Z,8.53
2019-02-16T01:43:42.345Z,6.33
2019-02-16T01:46:12.705Z,7.70
2019-02-16T01:51:46.181Z,9.00
2019-02-16T01:54:40.141Z,8.00
2019-02-16T01:57:12.202Z,7.80
2019-02-16T01:59:42.621Z,9.33
2019-02-16T02:02:13.114Z,6.97
2019-02-16T02:04:43.658Z,7.40
2019-02-16T02:07:14.304Z,10.77
2019-02-16T02:09:44.728Z,6.47
2019-02-16T02:12:15.414Z,6.47
2019-02-16T02:15:06.393Z,8.17
2019-02-16T02:17:58.428Z,7.03
2019-02-16T02:20:29.046Z,7.33
2019-02-16T02:28:46.996Z,8.13
2019-02-16T02:31:17.564Z,6.77
2019-02-16T02:33:48.163Z,8.20
2019-02-16T02:36:18.834Z,6.70
2019-02-16T02:42:12.348Z,6.93
2019-02-16T02:48:05.978Z,8.27
2019-02-16T02:50:36.508Z,7.93
2019-02-16T02:53:06.903Z,5.83
2019-02-16T03:02:03.346Z,9.33
2019-02-16T03:04:39.527Z,9.73
2019-02-16T03:07:10.138Z,5.73
2019-02-16T03:09:40.723Z,8.03
2019-02-16T03:12:11.293Z,8.20
2019-02-16T03:14:41.799Z,9.80
2019-02-16T03:17:23.690Z,9.23
2019-02-16T03:19:54.254Z,9.47
2019-02-16T03:26:27.513Z,9.60
2019-02-16T03:29:36.039Z,8.83
2019-02-16T03:32:44.651Z,7.73
2019-02-16T03:35:53.256Z,8.90
2019-02-16T03:39:03.597Z,10.47
2019-02-16T03:41:34.226Z,6.63
2019-02-16T03:44:07.473Z,6.30
2019-02-16T03:46:38.334Z,7.60
2019-02-16T03:49:27.896Z,8.37
2019-02-16T03:52:13.349Z,6.83
2019-02-16T03:57:21.946Z,7.30
2019-02-16T03:59:52.566Z,8.27
2019-02-16T04:02:22.999Z,8.57
2019-02-16T04:04:53.486Z,7.97
2019-02-16T04:07:26.094Z,7.10
2019-02-16T04:09:57.210Z,7.53
2019-02-16T04:12:46.721Z,9.07
2019-02-16T04:15:17.347Z,10.17
2019-02-16T04:17:47.756Z,7.67
2019-02-16T04:20:18.262Z,7.40
2019-02-16T04:22:48.832Z,8.10
2019-02-16T04:25:39.935Z,6.13
2019-02-16T04:28:12.403Z,8.17
2019-02-16T04:30:42.977Z,10.33
2019-02-16T04:33:13.461Z,11.13
2019-02-16T04:35:44.095Z,8.80
2019-02-16T04:38:33.544Z,7.70
2019-02-16T04:41:16.017Z,9.53
2019-02-16T04:43:46.476Z,7.53
2019-02-16T04:46:17.002Z,9.67
2019-02-16T04:48:48.351Z,9.00
2019-02-16T04:51:42.961Z,7.67
2019-02-16T04:54:25.321Z,7.77
2019-02-16T04:56:55.833Z,6.60
2019-02-16T04:59:26.211Z,8.17
2019-02-16T05:02:15.459Z,8.00
2019-02-16T05:04:45.845Z,9.57
2019-02-16T05:07:21.075Z,8.17
2019-02-16T05:09:51.797Z,7.43
2019-02-16T05:12:28.936Z,8.63
2019-02-16T05:18:10.779Z,7.43
2019-02-16T05:20:51.924Z,9.27
2019-02-16T05:23:22.487Z,7.63
2019-02-16T05:25:54.398Z,9.20
2019-02-16T05:31:06.483Z,8.53
2019-02-16T05:33:36.914Z,9.30
2019-02-16T05:36:27.755Z,8.30
2019-02-16T05:39:17.273Z,7.20
2019-02-16T05:41:48.112Z,8.57
2019-02-16T05:47:43.774Z,8.97
2019-02-16T05:50:14.566Z,9.23
2019-02-16T05:52:53.714Z,9.80
2019-02-16T05:55:30.179Z,9.33
2019-02-16T06:04:28.490Z,11.80
2019-02-16T06:06:59.031Z,8.73
2019-02-16T06:09:29.539Z,9.50
2019-02-16T06:12:20.618Z,9.80
2019-02-16T06:15:12.092Z,7.90
2019-02-16T06:17:42.533Z,9.93
2019-02-16T06:23:18.204Z,9.53
2019-02-16T06:25:48.588Z,9.67
2019-02-16T06:40:13.497Z,9.20
2019-02-16T06:43:04.513Z,10.77
2019-02-16T06:45:54.006Z,9.23
2019-02-16T06:51:26.833Z,36.33
2019-02-16T06:53:57.289Z,9.17
2019-02-16T06:56:46.630Z,10.30
2019-02-16T06:59:17.014Z,9.20
2019-02-16T07:01:47.683Z,10.50
2019-02-16T07:04:18.099Z,9.47
2019-02-16T07:09:43.166Z,11.83
2019-02-16T07:12:13.647Z,8.93
2019-02-16T07:18:05.329Z,8.73
2019-02-16T07:20:35.753Z,14.20
2019-02-16T07:23:06.237Z,9.53
2019-02-16T07:25:36.682Z,10.67
2019-02-16T07:28:18.991Z,9.93
2019-02-16T07:30:49.409Z,10.40
2019-02-16T07:33:19.883Z,10.67
2019-02-16T07:35:50.816Z,11.63
2019-02-16T07:38:21.275Z,9.77
2019-02-16T07:40:51.664Z,10.00
2019-02-16T07:43:41.632Z,13.13
2019-02-16T07:46:22.621Z,11.07
2019-02-16T07:49:32.719Z,9.30
2019-02-16T07:52:14.147Z,10.53
2019-02-16T07:58:25.077Z,10.37
2019-02-16T08:01:14.409Z,8.73
2019-02-16T08:06:47.661Z,19.90
2019-02-16T08:09:57.687Z,16.33
2019-02-16T08:13:06.224Z,10.53
2019-02-16T08:16:15.152Z,11.93
2019-02-16T08:19:04.772Z,11.97
2019-02-16T08:21:55.518Z,10.37
2019-02-16T08:24:38.707Z,13.03
2019-02-16T08:27:20.286Z,11.10
2019-02-16T08:30:10.624Z,12.13
2019-02-16T08:33:00.644Z,11.77
2019-02-16T08:35:51.677Z,11.47
2019-02-16T08:41:31.682Z,15.00
2019-02-16T08:44:10.200Z,10.13
2019-02-16T08:47:20.331Z,11.60
2019-02-16T08:50:29.553Z,11.67
2019-02-16T08:53:39.483Z,10.23
2019-02-16T08:56:47.872Z,11.10
2019-02-16T09:05:31.755Z,12.20
2019-02-16T09:08:21.169Z,11.23
2019-02-16T09:11:10.479Z,11.97
2019-02-16T09:13:59.953Z,10.60
2019-02-16T09:16:49.526Z,12.57
2019-02-16T09:23:04.099Z,10.33
2019-02-16T09:25:53.480Z,13.77
2019-02-16T09:28:43.240Z,10.20
2019-02-16T09:31:32.574Z,9.07
2019-02-16T09:37:23.845Z,8.60
2019-02-16T09:40:32.222Z,10.67
2019-02-16T09:43:40.677Z,12.07
2019-02-16T09:52:35.687Z,11.27
2019-02-16T09:55:44.661Z,11.43
2019-02-16T09:58:34.151Z,8.30
2019-02-16T10:01:25.372Z,9.67
2019-02-16T10:04:14.808Z,10.77
2019-02-16T10:07:04.589Z,12.90
2019-02-16T10:09:54.026Z,9.63
2019-02-16T10:12:44.479Z,12.13
2019-02-16T10:22:21.035Z,15.10
2019-02-16T10:35:04.616Z,13.47
2019-02-16T10:37:54.098Z,13.03
2019-02-16T10:40:43.530Z,12.43
2019-02-16T10:43:33.007Z,17.43
2019-02-16T10:46:22.757Z,12.57
2019-02-16T10:49:06.928Z,11.73
2019-02-16T10:51:56.923Z,14.30
2019-02-16T10:55:02.446Z,9.33
2019-02-16T10:57:52.180Z,12.70
2019-02-16T11:00:33.397Z,13.70
2019-02-16T11:03:41.908Z,12.17
2019-02-16T11:06:31.574Z,12.57
2019-02-16T11:09:23.649Z,11.97
2019-02-16T11:12:32.093Z,15.77
2019-02-16T11:15:21.530Z,12.70
2019-02-16T11:18:10.931Z,15.17
2019-02-16T11:21:00.226Z,14.40
2019-02-16T11:23:49.590Z,15.30
2019-02-16T11:29:41.521Z,15.53
2019-02-16T11:32:30.899Z,14.70
2019-02-16T11:35:20.361Z,12.23
2019-02-16T11:37:57.651Z,14.57
2019-02-16T11:40:46.974Z,17.30
2019-02-16T11:43:36.303Z,18.50
2019-02-16T11:46:25.702Z,17.13
2019-02-16T11:49:15.030Z,16.97
2019-02-16T11:52:04.354Z,18.57
2019-02-16T11:54:54.022Z,17.27
2019-02-16T11:57:43.714Z,19.50
2019-02-16T12:00:33.046Z,16.93
2019-02-16T12:06:06.391Z,24.37
2019-02-16T12:08:58.713Z,17.40
2019-02-16T12:11:49.988Z,17.67
2019-02-16T12:14:39.277Z,16.87
2019-02-16T12:17:28.571Z,24.93
2019-02-16T12:20:17.857Z,18.40
2019-02-16T12:23:07.182Z,22.60
2019-02-16T12:25:56.482Z,17.93
2019-02-16T12:28:45.886Z,19.90
2019-02-16T12:31:35.192Z,19.47
2019-02-16T12:37:07.868Z,17.93
2019-02-16T12:39:57.160Z,18.37
2019-02-16T12:42:46.518Z,22.37
2019-02-16T12:45:35.829Z,22.40
2019-02-16T12:48:25.342Z,19.60
2019-02-16T12:51:14.858Z,19.10
2019-02-16T12:54:23.445Z,19.77
2019-02-16T12:57:14.977Z,21.57
2019-02-16T12:59:56.207Z,22.43
2019-02-16T13:02:36.634Z,20.30
2019-02-16T13:08:22.192Z,18.67
2019-02-16T13:11:11.726Z,22.40
2019-02-16T13:14:17.372Z,20.13
2019-02-16T13:17:28.544Z,20.13
2019-02-16T13:20:17.859Z,21.23
2019-02-16T13:23:09.573Z,22.50
2019-02-16T13:28:45.400Z,22.43
2019-02-16T13:31:34.802Z,20.07
2019-02-16T13:34:24.336Z,22.43
2019-02-16T13:37:07.974Z,24.63
2019-02-16T13:40:18.122Z,19.70
2019-02-16T13:46:09.617Z,20.53
2019-02-16T13:48:45.171Z,19.70
2019-02-16T13:54:56.220Z,20.23
2019-02-16T13:57:45.501Z,22.43
2019-02-16T14:00:34.961Z,32.33
2019-02-16T14:03:15.161Z,29.10
2019-02-16T14:05:54.184Z,21.37
2019-02-16T14:08:43.889Z,21.43
2019-02-16T14:11:33.335Z,21.27
2019-02-16T14:14:34.806Z,23.07
2019-02-16T14:17:24.596Z,20.60
2019-02-16T14:20:07.071Z,23.83
2019-02-16T14:22:50.890Z,28.40
2019-02-16T14:25:59.209Z,21.17
2019-02-16T14:31:32.420Z,22.93
2019-02-16T14:34:02.746Z,19.67
2019-02-16T14:36:33.094Z,17.93
2019-02-16T14:42:01.378Z,24.37
2019-02-16T14:44:50.971Z,21.23
2019-02-16T14:47:32.644Z,21.57
2019-02-16T14:50:03.360Z,19.90
2019-02-16T14:52:33.894Z,21.10
2019-02-16T15:01:51.382Z,21.23
2019-02-16T15:10:10.456Z,22.83
2019-02-16T15:12:43.449Z,23.63
2019-02-16T15:15:15.139Z,23.03
2019-02-16T15:17:45.940Z,21.87
2019-02-16T15:20:16.789Z,22.43
2019-02-16T15:26:17.109Z,23.00
2019-02-16T15:29:10.721Z,23.40
2019-02-16T15:31:53.056Z,20.43
2019-02-16T15:34:44.681Z,21.50
2019-02-16T15:43:40.633Z,28.70
2019-02-16T15:46:11.025Z,21.53
2019-02-16T15:55:05.154Z,27.17
2019-02-16T15:57:35.818Z,21.77
2019-02-16T16:00:27.843Z,22.43
2019-02-16T16:02:59.718Z,25.03
2019-02-16T16:08:49.631Z,20.97
2019-02-16T16:17:55.429Z,22.17
2019-02-16T16:20:45.201Z,20.00
2019-02-16T16:23:35.221Z,19.47
2019-02-16T16:26:26.747Z,22.13
2019-02-16T16:29:31.352Z,22.50
2019-02-16T16:35:24.782Z,22.13
2019-02-16T16:38:33.149Z,22.67
2019-02-16T16:41:22.509Z,26.30
2019-02-16T16:49:58.344Z,25.40
2019-02-16T16:52:44.850Z,26.43
2019-02-16T16:55:34.159Z,27.20
2019-02-16T16:58:44.064Z,22.37
2019-02-16T17:01:33.343Z,28.03
2019-02-16T17:07:06.339Z,30.17
2019-02-16T17:09:55.798Z,30.93
2019-02-16T17:12:45.205Z,28.00
2019-02-16T17:18:37.461Z,29.07
2019-02-16T17:21:26.969Z,29.50
2019-02-16T17:24:16.277Z,29.70
2019-02-16T17:27:05.685Z,27.10
2019-02-16T17:36:05.721Z,25.33
2019-02-16T17:38:55.464Z,29.13
2019-02-16T17:41:43.562Z,31.20
2019-02-16T17:44:25.863Z,28.40
2019-02-16T17:47:15.172Z,28.83
2019-02-16T17:50:04.599Z,27.93
2019-02-16T17:52:54.552Z,27.50
2019-02-16T17:55:36.935Z,25.67
2019-02-16T17:58:23.220Z,28.30
2019-02-16T18:01:12.748Z,33.37
2019-02-16T18:04:20.894Z,32.43
2019-02-16T18:07:02.593Z,37.80
2019-02-16T18:09:52.046Z,35.57
2019-02-16T18:12:42.402Z,33.23
2019-02-16T18:15:31.810Z,32.63
2019-02-16T18:18:21.229Z,33.63
2019-02-16T18:21:03.151Z,32.30
2019-02-16T18:23:40.602Z,31.37
2019-02-16T18:29:04.646Z,34.47
2019-02-16T18:31:54.059Z,39.53
2019-02-16T18:34:43.342Z,54.13
2019-02-16T18:37:33.129Z,49.33
2019-02-16T18:43:24.906Z,44.40
2019-02-16T18:46:25.723Z,41.77
2019-02-16T18:49:03.762Z,40.07
2019-02-16T18:51:53.226Z,43.00
2019-02-16T18:54:56.641Z,43.97
2019-02-16T18:57:38.026Z,35.03
2019-02-16T19:03:13.460Z,29.83
2019-02-16T19:06:02.760Z,28.17
2019-02-16T19:11:54.609Z,36.13
2019-02-16T19:14:43.979Z,30.00
2019-02-16T19:17:33.296Z,32.57
2019-02-16T19:20:22.787Z,32.17
2019-02-16T19:23:04.650Z,31.33
2019-02-16T19:28:28.062Z,34.23
2019-02-16T19:31:17.473Z,40.97
2019-02-16T19:34:06.901Z,37.63
2019-02-16T19:36:50.305Z,34.23
2019-02-16T19:39:40.060Z,31.47
2019-02-16T19:42:24.780Z,32.13
2019-02-16T19:45:14.778Z,31.87
2019-02-16T19:50:48.017Z,35.53
2019-02-16T19:53:30.591Z,26.53
2019-02-16T19:59:14.646Z,25.47
2019-02-16T20:02:24.686Z,24.40
2019-02-16T20:05:33.290Z,30.37
2019-02-16T20:08:22.648Z,29.43
2019-02-16T20:11:05.139Z,30.57
2019-02-16T20:13:54.417Z,27.70
2019-02-16T20:16:46.223Z,33.33
2019-02-16T20:19:26.086Z,27.17
2019-02-16T20:22:15.353Z,29.43
2019-02-16T20:25:04.679Z,30.27
2019-02-16T20:27:54.028Z,26.37
2019-02-16T20:30:43.358Z,30.67
2019-02-16T20:33:32.652Z,30.63
2019-02-16T20:36:21.965Z,29.37
2019-02-16T20:39:11.284Z,32.17
2019-02-16T20:42:00.502Z,30.33
2019-02-16T20:44:42.185Z,27.50
2019-02-16T20:47:31.657Z,27.07
2019-02-16T20:50:41.644Z,32.17
2019-02-16T20:53:31.107Z,27.17
2019-02-16T20:56:08.542Z,27.67
2019-02-16T20:59:18.551Z,25.47
2019-02-16T21:01:54.640Z,28.00
2019-02-16T21:04:56.654Z,27.57
2019-02-16T21:07:46.140Z,27.77
2019-02-16T21:10:32.597Z,29.47
2019-02-16T21:13:21.967Z,27.57
2019-02-16T21:16:11.303Z,28.53
2019-02-16T21:19:01.081Z,26.73
2019-02-16T21:22:02.447Z,25.90
2019-02-16T21:24:51.757Z,31.43
2019-02-16T21:27:28.046Z,30.53
2019-02-16T21:30:18.366Z,25.90
2019-02-16T21:33:07.799Z,29.80
2019-02-16T21:35:57.175Z,27.97
2019-02-16T21:39:05.618Z,25.10
2019-02-16T21:41:55.496Z,27.67
2019-02-16T21:44:40.275Z,25.17
2019-02-16T21:47:16.815Z,29.90
2019-02-16T21:53:27.865Z,26.33
2019-02-16T21:56:16.980Z,28.13
2019-02-16T21:59:25.388Z,25.70
2019-02-16T22:02:35.687Z,24.27
2019-02-16T22:05:27.073Z,22.47
2019-02-16T22:08:21.800Z,24.23
2019-02-16T22:11:11.115Z,27.87
2019-02-16T22:13:41.500Z,22.20
2019-02-16T22:16:12.401Z,22.63
2019-02-16T22:18:43.267Z,23.80
2019-02-16T22:21:32.869Z,26.10
2019-02-16T22:24:03.396Z,23.20
2019-02-16T22:26:33.822Z,25.27
2019-02-16T22:29:04.959Z,24.40
2019-02-16T22:31:54.276Z,26.63
2019-02-16T22:37:26.885Z,23.03
2019-02-16T22:39:57.341Z,25.13
2019-02-16T22:42:28.001Z,22.70
2019-02-16T22:44:58.633Z,22.63
2019-02-16T22:47:49.672Z,21.13
2019-02-16T22:50:20.080Z,24.30
2019-02-16T22:52:50.461Z,24.60
2019-02-16T22:55:20.858Z,23.23
2019-02-16T22:57:51.330Z,21.80
2019-02-16T23:00:40.681Z,22.63
2019-02-16T23:03:31.724Z,18.73
2019-02-16T23:06:02.154Z,20.27
2019-02-16T23:08:32.647Z,21.70
2019-02-16T23:11:03.316Z,20.60
2019-02-16T23:13:54.448Z,24.00
2019-02-16T23:16:35.495Z,22.07
2019-02-16T23:22:08.892Z,23.93
2019-02-16T23:24:39.439Z,20.13
2019-02-16T23:27:28.960Z,23.03
2019-02-16T23:30:09.870Z,20.73
2019-02-16T23:32:40.297Z,21.83
2019-02-16T23:35:10.747Z,25.67
2019-02-16T23:38:00.030Z,23.60
2019-02-16T23:42:00.351Z,22.47
2019-02-16T23:45:43.686Z,21.80
2019-02-16T23:48:32.280Z,22.73
2019-02-16T23:51:01.581Z,21.93
2019-02-16T23:53:30.851Z,24.23
2019-02-16T23:56:00.076Z,24.20
2019-02-16T23:58:29.406Z,20.80
